Latest Weather Observations for Cape Bruny AWS

IDT60901

Issued at 5:31 am EDT Saturday 31 January 2015 (issued every 10 minutes, with the page automatically refreshed every 10 minutes)

About weather observations | Map of Hobart area stations | Latest observations for Hobart area | Other Formats
Station Details ID: 094198 Name: CAPE BRUNY (CAPE BRUNY) Lat: -43.49 Lon: 147.14 Height: 59.7 m
Data from the previous 72 hours. | See also: Recent months at Cape Bruny AWS
Date/Time
EDT
Tmp

°C
App
Tmp
°C
Dew
Point
°C
Rel
Hum
%
Delta-T

°C
Wind Press
QNH
hPa
Press
MSL
hPa
Rain
since
9 am
mm
Dir
 
Spd
km/h
Gust
km/h
Spd
kts
Gust
kts
31/05:30am 12.8 7.2 11.5 92 0.7 S 32 46 17 25 1012.4 1012.3 4.8
31/05:11am 12.8 7.2 11.4 91 0.7 S 32 50 17 27 1012.3 1012.2 4.8
31/05:00am 12.7 6.9 11.4 92 0.7 S 33 50 18 27 1012.4 1012.3 4.8
31/04:49am 12.7 7.4 11.4 92 0.7 S 30 48 16 26 1012.5 1012.4 4.8
31/04:30am 12.5 7.2 11.2 92 0.7 S 30 46 16 25 1012.7 1012.6 4.8
31/04:00am 12.5 7.2 11.4 93 0.6 S 30 48 16 26 1013.0 1012.9 4.6
31/03:38am 12.4 7.5 11.3 93 0.6 S 28 46 15 25 1013.1 1013.0 4.4
31/03:30am 12.5 7.6 11.4 93 0.6 S 28 44 15 24 1013.2 1013.1 4.2
31/03:00am 12.3 7.7 11.0 92 0.7 S 26 41 14 22 1013.6 1013.5 3.6
31/02:48am 12.5 7.6 11.4 93 0.6 S 28 46 15 25 1013.6 1013.5 3.6
31/02:30am 12.5 7.2 11.2 92 0.7 S 30 43 16 23 1013.7 1013.6 3.4
31/02:00am 12.5 7.2 11.2 92 0.7 SSE 30 37 16 20 1014.0 1013.9 3.0
31/01:33am 12.5 7.5 10.9 90 0.8 S 28 48 15 26 1014.2 1014.1 2.2
31/01:30am 12.6 8.0 11.0 90 0.8 S 26 48 14 26 1014.2 1014.1 2.0
31/01:00am 12.8 7.4 11.0 89 0.9 S 30 48 16 26 1014.5 1014.5 1.6
31/12:49am 12.5 7.4 10.6 88 1.0 S 28 48 15 26 1014.4 1014.3 1.6
31/12:30am 12.7 7.7 10.8 88 1.0 S 28 39 15 21 1014.5 1014.5 1.6
31/12:00am 12.8 6.3 10.3 85 1.3 SSE 35 44 19 24 1014.8 1014.8 1.4
 
Date/Time
EDT
Tmp

°C
App
Tmp
°C
Dew
Point
°C
Rel
Hum
%
Delta-T

°C
Wind Press
QNH
hPa
Press
MSL
hPa
Rain
since
9 am
mm
Dir
 
Spd
km/h
Gust
km/h
Spd
kts
Gust
kts
30/11:30pm 13.6 7.5 9.6 77 2.1 S 32 43 17 23 1015.1 1015.1 1.4
30/11:02pm 13.5 7.6 9.2 75 2.2 S 30 48 16 26 1015.3 1015.3 1.4
30/11:00pm 13.4 7.5 8.9 74 2.3 S 30 44 16 24 1015.4 1015.4 1.4
30/10:30pm 13.4 7.1 8.9 74 2.3 S 32 43 17 23 1015.8 1015.8 1.4
30/10:00pm 13.2 6.8 8.7 74 2.3 SSE 32 43 17 23 1015.9 1015.9 1.4
30/09:30pm 13.3 7.1 9.2 76 2.1 SSE 32 41 17 22 1016.1 1016.1 1.4
30/09:00pm 13.2 7.0 9.3 77 2.0 SSE 32 43 17 23 1016.1 1016.1 1.4
30/08:30pm 13.0 7.5 9.3 78 1.9 SSE 28 39 15 21 1016.2 1016.2 1.4
30/08:00pm 13.2 8.0 10.2 82 1.6 S 28 39 15 21 1016.1 1016.1 1.4
30/07:30pm 13.1 6.9 9.9 81 1.6 SSE 33 46 18 25 1016.2 1016.2 1.4
30/07:14pm 13.2 7.7 10.4 83 1.5 SSE 30 48 16 26 1016.2 1016.2 1.4
30/07:00pm 13.1 7.2 10.5 84 1.4 SSE 32 41 17 22 1016.3 1016.3 1.4
30/06:38pm 13.2 8.2 10.9 86 1.2 SSE 28 46 15 25 1016.4 1016.4 1.4
30/06:30pm 12.9 7.4 10.4 85 1.3 SSE 30 43 16 23 1016.5 1016.5 1.4
30/06:00pm 13.6 9.2 11.7 88 1.0 S 26 35 14 19 1016.6 1016.6 1.4
30/05:30pm 13.3 8.6 10.7 84 1.4 S 26 43 14 23 1016.9 1016.9 1.2
30/05:04pm 13.6 8.4 10.2 80 1.8 SSE 28 46 15 25 1017.1 1017.1 1.2
30/05:00pm 14.1 8.9 10.3 78 2.0 SSE 28 33 15 18 1017.1 1017.1 1.2
30/04:30pm 14.5 10.1 11.6 83 1.6 S 26 35 14 19 1017.4 1017.4 1.2
30/04:00pm 13.6 8.1 10.4 81 1.7 S 30 46 16 25 1017.5 1017.5 1.2
30/03:39pm 12.7 6.5 10.2 85 1.3 SSE 33 52 18 28 1017.7 1017.7 1.2
30/03:30pm 12.5 4.7 9.9 84 1.3 SSE 41 57 22 31 1017.9 1017.9 1.2
30/03:24pm 13.6 7.6 10.2 80 1.8 SSE 32 54 17 29 1017.8 1017.8 1.2
30/03:00pm 13.8 8.9 10.0 78 2.0 S 26 39 14 21 1018.1 1018.1 1.2
30/02:30pm 13.9 8.3 10.1 78 2.0 SSE 30 41 16 22 1018.3 1018.3 1.2
30/02:00pm 14.5 9.2 11.1 80 1.8 SSE 30 39 16 21 1018.4 1018.4 1.2
30/01:30pm 13.3 7.4 10.5 83 1.5 S 32 44 17 24 1018.5 1018.5 1.2
30/01:00pm 13.8 7.8 10.2 79 1.9 S 32 43 17 23 1018.7 1018.7 1.0
30/12:49pm 13.9 8.8 10.5 80 1.8 S 28 48 15 26 1018.8 1018.8 1.0
30/12:30pm 13.7 9.0 10.7 82 1.6 S 26 41 14 22 1018.9 1018.9 1.0
30/12:00pm 12.5 7.3 10.2 86 1.2 S 28 46 15 25 1019.2 1019.1 1.0
30/11:36am 12.5 7.4 10.6 88 1.0 S 28 46 15 25 1019.7 1019.6 1.0
30/11:30am 12.7 8.7 10.6 87 1.1 SSE 22 41 12 22 1019.7 1019.6 0.6
30/11:00am 12.8 6.9 10.5 86 1.2 S 32 52 17 28 1019.9 1019.8 0.4
30/10:58am 12.9 7.0 10.4 85 1.3 S 32 52 17 28 1019.9 1019.8 0.4
30/10:30am 12.5 8.6 10.7 89 0.9 SSE 22 35 12 19 1020.1 1020.0 0.4
30/10:16am 13.1 8.0 10.6 85 1.3 SSE 28 46 15 25 1020.0 1019.9 0.2
30/10:00am 13.4 8.8 10.9 85 1.3 S 26 41 14 22 1020.4 1020.3 0.0
30/09:45am 13.1 6.5 10.1 82 1.6 S 35 54 19 29 1020.4 1020.3 0.0
30/09:30am 13.1 7.9 10.1 82 1.6 SSE 28 41 15 22 1020.4 1020.3 0.0
30/09:16am 12.9 6.7 9.9 82 1.5 S 33 52 18 28 1020.5 1020.4 0.0
30/09:00am 12.5 6.4 10.4 87 1.1 SSE 33 46 18 25 1020.6 1020.5 1.6
30/08:37am 12.6 7.1 10.5 87 1.1 SSE 30 50 16 27 1020.6 1020.5 1.6
30/08:30am 12.6 7.5 10.7 88 1.0 S 28 43 15 23 1020.7 1020.6 1.6
30/08:09am 12.3 6.8 10.4 88 1.0 S 30 52 16 28 1020.5 1020.4 1.4
30/08:08am 12.4 7.3 10.5 88 1.0 S 28 44 15 24 1020.5 1020.4 1.4
30/08:00am 12.1 8.0 10.2 88 1.0 SSE 22 41 12 22 1020.5 1020.4 1.4
30/07:48am 12.3 6.1 10.0 86 1.2 S 33 52 18 28 1020.3 1020.2 1.4
30/07:30am 12.0 6.7 9.9 87 1.1 S 28 43 15 23 1020.5 1020.4 1.4
30/07:23am 12.2 6.5 9.9 86 1.2 S 30 48 16 26 1020.5 1020.4 1.4
30/07:00am 11.7 5.0 9.8 88 1.0 SSE 35 46 19 25 1020.4 1020.3 1.4
30/06:31am 12.5 5.5 9.9 84 1.3 SSE 37 56 20 30 1020.5 1020.4 1.2
30/06:30am 12.6 5.2 10.0 84 1.3 SSE 39 56 21 30 1020.5 1020.4 1.2
30/06:00am 12.3 5.3 10.0 86 1.2 SSE 37 50 20 27 1020.6 1020.5 1.2
30/05:45am 11.8 6.5 9.9 88 1.0 S 28 48 15 26 1020.6 1020.5 1.2
30/05:30am 12.2 8.2 10.4 89 0.9 S 22 37 12 20 1020.7 1020.6 1.2
30/05:00am 11.6 5.0 10.0 90 0.8 SSE 35 50 19 27 1020.7 1020.6 1.0
30/04:30am 12.1 5.5 10.0 87 1.1 S 35 56 19 30 1020.8 1020.7 0.8
30/04:22am 12.5 6.6 10.4 87 1.1 SSE 32 50 17 27 1020.8 1020.7 0.8
30/04:00am 12.4 7.1 9.8 84 1.3 S 28 41 15 22 1021.0 1020.9 0.8
30/03:32am 12.6 7.3 10.0 84 1.3 S 28 48 15 26 1021.3 1021.2 0.8
30/03:30am 12.6 7.3 10.0 84 1.3 S 28 44 15 24 1021.3 1021.2 0.8
30/03:00am 12.1 7.6 10.2 88 1.0 S 24 37 13 20 1021.6 1021.5 0.8
30/02:30am 11.8 7.3 10.0 89 0.9 S 24 35 13 19 1022.1 1022.0 0.6
30/02:00am 12.0 8.4 9.7 86 1.2 SSE 19 33 10 18 1022.5 1022.4 0.4
30/01:30am 11.5 7.6 9.4 87 1.1 SE 20 32 11 17 1022.8 1022.7 0.4
30/01:00am 11.8 6.2 8.8 82 1.5 ESE 28 35 15 19 1023.0 1022.9 0.4
30/12:30am 12.8 6.9 7.3 69 2.7 SE 28 43 15 23 1023.3 1023.2 0.2
30/12:00am 12.8 6.0 6.8 67 2.9 SE 32 44 17 24 1023.5 1023.4 0.2
 
Date/Time
EDT
Tmp

°C
App
Tmp
°C
Dew
Point
°C
Rel
Hum
%
Delta-T

°C
Wind Press
QNH
hPa
Press
MSL
hPa
Rain
since
9 am
mm
Dir
 
Spd
km/h
Gust
km/h
Spd
kts
Gust
kts
29/11:32pm 12.7 6.0 7.4 70 2.6 ESE 32 50 17 27 1023.6 1023.5 0.2
29/11:30pm 12.7 6.0 7.4 70 2.6 SE 32 41 17 22 1023.6 1023.5 0.2
29/11:00pm 12.9 7.2 8.4 74 2.2 SE 28 56 15 30 1023.7 1023.6 0.2
29/10:30pm 12.9 5.8 5.3 60 3.5 SE 32 52 17 28 1024.0 1023.9 0.2
29/10:00pm 13.1 6.7 6.9 66 3.0 SE 30 56 16 30 1024.2 1024.1 0.2
29/09:38pm 12.8 6.7 6.8 67 2.9 SE 28 57 15 31 1024.1 1024.0 0.2
29/09:30pm 12.6 6.2 7.1 69 2.7 SE 30 41 16 22 1024.2 1024.1 0.2
29/09:00pm 11.6 7.0 8.1 79 1.7 S 22 33 12 18 1024.2 1024.1 0.2
29/08:41pm 11.4 5.6 7.9 79 1.7 S 28 46 15 25 1024.4 1024.3 0.2
29/08:30pm 12.3 7.6 7.8 74 2.2 S 22 35 12 19 1024.4 1024.3 0.2
29/08:00pm 11.9 7.2 7.6 75 2.1 SE 22 43 12 23 1024.4 1024.3 0.2
29/07:45pm 11.9 6.5 8.0 77 1.9 SSE 26 48 14 26 1024.4 1024.3 0.2
29/07:30pm 12.5 8.3 8.4 76 2.0 SSE 20 33 11 18 1024.4 1024.3 0.2
29/07:00pm 11.4 6.3 7.7 78 1.8 S 24 37 13 20 1024.4 1024.3 0.0
29/06:55pm 11.8 6.1 8.5 80 1.6 S 28 48 15 26 1024.4 1024.3 0.0
29/06:30pm 12.6 8.2 7.3 70 2.6 S 20 35 11 19 1024.4 1024.3 0.0
29/06:00pm 12.8 8.6 7.5 70 2.6 SSE 19 32 10 17 1024.4 1024.3 0.0
29/05:30pm 13.1 7.1 7.1 67 2.9 S 28 37 15 20 1024.6 1024.5 0.0
29/05:00pm 13.4 7.0 7.0 65 3.1 S 30 39 16 21 1024.8 1024.7 0.0
29/04:30pm 13.7 8.8 7.0 64 3.3 S 22 33 12 18 1024.9 1024.8 0.0
29/04:00pm 13.5 9.1 6.6 63 3.3 SSE 19 32 10 17 1025.0 1024.9 0.0
29/03:30pm 14.6 10.8 7.4 62 3.6 S 17 30 9 16 1025.1 1025.0 0.0
29/03:00pm 14.5 10.0 6.8 60 3.7 S 20 35 11 19 1025.4 1025.3 0.0
29/02:30pm 13.9 8.9 6.3 60 3.6 S 22 32 12 17 1025.5 1025.4 0.0
29/02:00pm 14.2 8.9 6.6 60 3.7 S 24 41 13 22 1025.4 1025.3 0.0
29/01:30pm 14.4 8.9 6.0 57 4.0 S 24 35 13 19 1025.6 1025.5 0.0
29/01:00pm 14.8 9.9 6.9 59 3.8 S 22 32 12 17 1025.8 1025.7 0.0
29/12:30pm 13.4 9.0 7.2 66 3.0 SE 20 33 11 18 1026.1 1026.0 0.0
29/12:00pm 13.5 8.9 6.4 62 3.4 SE 20 33 11 18 1026.2 1026.1 0.0
29/11:30am 13.6 9.2 7.6 67 3.0 SSE 20 39 11 21 1026.2 1026.1 0.0
29/11:00am 13.5 8.4 7.5 67 2.9 SE 24 35 13 19 1026.3 1026.2 0.0
29/10:30am 13.2 8.8 7.6 69 2.8 SSE 20 39 11 21 1026.3 1026.2 0.0
29/10:00am 12.3 5.2 8.2 76 2.0 ESE 35 43 19 23 1026.1 1026.0 0.0
29/09:30am 12.9 8.5 7.4 69 2.7 SE 20 35 11 19 1026.3 1026.2 0.0
29/09:00am 12.7 8.3 7.2 69 2.7 S 20 35 11 19 1026.3 1026.2 0.2
29/08:30am 12.5 7.6 7.0 69 2.7 SSE 22 37 12 20 1026.1 1026.0 0.2
29/08:00am 12.5 7.7 7.2 70 2.6 SSE 22 35 12 19 1026.0 1025.9 0.2
29/07:30am 12.7 7.0 6.5 66 3.0 S 26 39 14 21 1025.8 1025.7 0.2
29/07:00am 12.5 7.0 6.1 65 3.0 S 24 35 13 19 1025.7 1025.6 0.2
29/06:30am 12.2 6.9 6.9 70 2.5 S 24 35 13 19 1025.5 1025.4 0.2
29/06:00am 11.5 6.8 7.8 78 1.8 S 22 30 12 16 1025.6 1025.5 0.2
29/05:30am 11.8 7.2 6.3 69 2.6 S 20 33 11 18 1025.2 1025.1 0.2
29/05:00am 11.4 5.1 7.5 77 1.9 SE 30 44 16 24 1025.2 1025.1 0.2
29/04:30am 12.0 6.1 7.3 73 2.3 S 28 35 15 19 1025.1 1025.0 0.2
29/04:00am 12.5 8.0 7.0 69 2.6 SSE 20 33 11 18 1025.1 1025.0 0.2
29/03:30am 12.6 6.4 7.7 72 2.4 S 30 46 16 25 1025.2 1025.1 0.2
29/03:22am 12.6 6.7 7.5 71 2.5 S 28 46 15 25 1025.3 1025.2 0.2
29/03:00am 12.3 7.5 7.2 71 2.5 SSE 22 32 12 17 1025.4 1025.3 0.2
29/02:30am 12.0 6.5 7.7 75 2.1 SE 26 41 14 22 1025.5 1025.4 0.2
29/02:00am 12.3 5.9 7.0 70 2.5 SE 30 44 16 24 1025.6 1025.5 0.2
29/01:30am 11.6 6.4 7.3 75 2.1 SE 24 39 13 21 1025.9 1025.8 0.2
29/01:00am 12.6 7.8 7.3 70 2.6 SSE 22 37 12 20 1025.9 1025.8 0.2
29/12:30am 12.7 8.2 7.0 68 2.8 S 20 37 11 20 1025.9 1025.8 0.2
29/12:00am 12.6 8.1 6.9 68 2.7 S 20 39 11 21 1026.1 1026.0 0.2
 
Date/Time
EDT
Tmp

°C
App
Tmp
°C
Dew
Point
°C
Rel
Hum
%
Delta-T

°C
Wind Press
QNH
hPa
Press
MSL
hPa
Rain
since
9 am
mm
Dir
 
Spd
km/h
Gust
km/h
Spd
kts
Gust
kts
28/11:30pm 12.6 8.0 6.4 66 3.0 SSE 20 33 11 18 1026.2 1026.1 0.2
28/11:00pm 12.4 6.7 6.7 68 2.7 SE 26 46 14 25 1026.3 1026.2 0.2
28/10:30pm 12.4 8.4 6.5 67 2.8 SSE 17 32 9 17 1026.6 1026.5 0.2
28/10:00pm 12.5 8.4 6.1 65 3.0 SSE 17 26 9 14 1026.7 1026.6 0.2
28/09:30pm 12.5 7.2 6.8 68 2.7 SE 24 35 13 19 1026.5 1026.4 0.2
28/09:00pm 12.6 7.6 6.6 67 2.9 SE 22 35 12 19 1026.5 1026.4 0.2
28/08:30pm 12.7 8.2 6.1 64 3.1 SE 19 28 10 15 1026.2 1026.1 0.2
28/08:00pm 12.8 9.0 5.9 63 3.2 SSE 15 26 8 14 1026.1 1026.0 0.2
28/07:30pm 12.9 8.2 6.0 63 3.3 S 20 32 11 17 1025.9 1025.8 0.2
28/07:00pm 13.1 8.5 5.8 61 3.4 SSE 19 28 10 15 1025.8 1025.7 0.2
28/06:30pm 14.0 9.9 6.4 60 3.7 SSE 17 26 9 14 1025.8 1025.7 0.2
28/06:00pm 14.1 9.4 5.2 55 4.2 S 19 30 10 16 1025.8 1025.7 0.2
28/05:30pm 14.2 9.9 5.3 55 4.2 SSE 17 26 9 14 1025.8 1025.7 0.2
28/05:00pm 15.2 9.8 4.6 49 4.9 S 22 32 12 17 1025.7 1025.6 0.2
28/04:30pm 14.0 8.6 4.3 52 4.5 S 22 30 12 16 1025.5 1025.4 0.2
28/04:00pm 15.2 10.7 6.0 54 4.4 S 19 28 10 15 1025.5 1025.4 0.2
28/03:30pm 16.0 11.3 6.2 52 4.8 S 20 32 11 17 1025.6 1025.5 0.2
28/03:00pm 15.2 9.9 4.9 50 4.8 S 22 33 12 18 1025.8 1025.7 0.2
28/02:30pm 15.4 9.7 4.8 49 5.0 S 24 35 13 19 1025.7 1025.6 0.2
28/02:00pm 14.3 9.5 5.7 56 4.1 S 20 33 11 18 1025.6 1025.5 0.2
28/01:30pm 14.2 9.7 6.8 61 3.6 S 20 35 11 19 1025.6 1025.5 0.2
28/01:00pm 13.1 9.1 6.7 65 3.1 SSE 17 28 9 15 1025.7 1025.6 0.2
28/12:30pm 13.6 8.4 7.4 66 3.0 SSE 24 30 13 16 1025.6 1025.5 0.2
28/12:00pm 12.1 6.9 7.2 72 2.4 S 24 46 13 25 1025.6 1025.5 0.2
28/11:30am 12.1 7.8 7.2 72 2.4 SSE 19 26 10 14 1025.5 1025.4 0.2
28/11:00am 13.9 8.6 7.0 63 3.3 S 24 37 13 20 1025.5 1025.4 0.0
28/10:30am 14.7 10.2 6.8 59 3.9 S 20 28 11 15 1025.3 1025.2 0.0
28/10:00am 13.6 7.3 5.7 59 3.7 S 28 39 15 21 1025.1 1025.0 0.0
28/09:30am 14.2 8.0 4.5 52 4.5 S 26 33 14 18 1024.8 1024.7 0.0
28/09:00am 13.3 7.3 5.5 59 3.6 SSE 26 35 14 19 1024.7 1024.6 0.4
28/08:30am 13.2 7.4 6.3 63 3.3 S 26 35 14 19 1024.3 1024.2 0.4
28/08:00am 12.7 7.9 5.8 63 3.2 S 20 35 11 19 1024.0 1023.9 0.4
28/07:30am 12.5 7.0 6.1 65 3.0 S 24 33 13 18 1023.5 1023.4 0.4
28/07:00am 12.2 6.1 6.5 68 2.7 SSE 28 37 15 20 1023.1 1023.0 0.4
28/06:30am 12.0 7.5 6.9 71 2.4 S 20 32 11 17 1022.8 1022.7 0.4
28/06:00am 11.5 6.0 7.6 77 1.9 S 26 35 14 19 1022.6 1022.5 0.4

Latest Capital City Observations: Canberra | Sydney | Melbourne | Brisbane | Adelaide | Perth | Hobart | Darwin

Other Formats:

Comma delimited format used in spreadsheet applications
http://www.bom.gov.au/fwo/IDT60901/IDT60901.95967.axf

JavaScript Object Notation format (JSON) in row-major order
http://www.bom.gov.au/fwo/IDT60901/IDT60901.95967.json